Time;durP1;ratioP1;P1;durP2;ratioP2;P2;SDS_P1;SDS_P2;PMS_P1;PMS_P2;Temp;Humidity;BMP_temperature;BMP_pressure;BME280_temperature;BME280_humidity;BME280_pressure;Samples;Min_cycle;Max_cycle;Signal;HPM_P1;HPM_P2
2021/01/26 07:09:49;;;;;;;9.00;2.78;;;;;;;;;;12321717;22;25426128;-88
2021/01/26 07:15:21;;;;;;;3.95;1.80;;;;;;;;;;12782795;23;20245;-90
2021/01/26 07:21:16;;;;;;;;;;;;;;;;;;;;;
2021/01/26 07:26:44;;;;;;;3.78;1.73;;;;;;;;;;12766833;23;20012;-90
2021/01/26 07:32:20;;;;;;;;;;;;;;;;;;;;;
2021/01/26 07:43:38;;;;;;;8.02;5.03;;;;;;;;;;12578874;23;20038;-88
2021/01/26 07:49:11;;;;;;;6.90;2.30;;;;;;;;;;12532988;23;20134;-89
2021/01/26 07:54:49;;;;;;;15.05;11.20;;;;;;;;;;12402609;23;20055;-89
2021/01/26 08:00:11;;;;;;;5.95;1.83;;;;;;;;;;12430322;23;20056;-86
2021/01/26 08:05:43;;;;;;;3.85;2.00;;;;;;;;;;12577239;23;20007;-87
2021/01/26 08:10:44;;;;;;;3.30;1.67;;;;;;;;;;12652055;23;20091;-88
2021/01/26 08:15:45;;;;;;;2.70;1.20;;;;;;;;;;12749322;23;20037;-87
2021/01/26 08:20:46;;;;;;;4.30;2.05;;;;;;;;;;12746001;23;20498;-88
2021/01/26 08:25:50;;;;;;;3.45;1.92;;;;;;;;;;12745666;23;20010;-89
2021/01/26 08:30:51;;;;;;;4.65;2.42;;;;;;;;;;12746947;23;20005;-88
2021/01/26 08:35:55;;;;;;;4.18;2.17;;;;;;;;;;12746315;23;20006;-88
2021/01/26 08:40:59;;;;;;;3.95;1.90;;;;;;;;;;12745730;23;19998;-89
2021/01/26 08:46:00;;;;;;;3.53;1.45;;;;;;;;;;12746627;23;20009;-89
2021/01/26 08:51:09;;;;;;;2.70;1.35;;;;;;;;;;12761398;23;20024;-88
2021/01/26 08:56:24;;;;;;;4.63;1.77;;;;;;;;;;12783776;23;20073;-88
2021/01/26 09:01:35;;;;;;;2.97;1.48;;;;;;;;;;12793111;23;20002;-89
2021/01/26 09:06:35;;;;;;;;;;;;;;;;;;12759872;23;20013;-88
2021/01/26 09:11:40;;;;;;;4.32;1.70;;;;;;;;;;12732092;23;19913;-88
2021/01/26 09:16:44;;;;;;;2.78;1.25;;;;;;;;;;12744591;23;20072;-89
2021/01/26 09:21:45;;;;;;;5.45;1.55;;;;;;;;;;12744181;23;20008;-88
2021/01/26 09:26:47;;;;;;;3.28;1.40;;;;;;;;;;12744553;23;20005;-89
2021/01/26 09:31:48;;;;;;;3.28;1.60;;;;;;;;;;12760148;23;20010;-88
2021/01/26 09:36:49;;;;;;;3.25;1.50;;;;;;;;;;12768344;23;20442;-89
2021/01/26 09:41:50;;;;;;;3.30;1.25;;;;;;;;;;12757269;23;20002;-89
2021/01/26 09:46:52;;;;;;;3.92;1.80;;;;;;;;;;12744227;23;20009;-88
2021/01/26 09:51:59;;;;;;;3.75;1.67;;;;;;;;;;12745009;23;20013;-89
2021/01/26 09:57:01;;;;;;;1.88;1.00;;;;;;;;;;12746319;23;20001;-91
2021/01/26 10:02:16;;;;;;;1.95;1.00;;;;;;;;;;12744165;23;20084;-89
2021/01/26 10:07:18;;;;;;;2.63;0.80;;;;;;;;;;12744303;23;20006;-87
2021/01/26 10:12:26;;;;;;;1.33;0.95;;;;;;;;;;12744819;23;20018;-90
2021/01/26 10:17:27;;;;;;;1.25;0.80;;;;;;;;;;12741048;23;20009;-88
2021/01/26 10:22:28;;;;;;;2.13;1.08;;;;;;;;;;12742747;23;20009;-88
2021/01/26 10:27:29;;;;;;;2.30;1.30;;;;;;;;;;12750560;23;20514;-89
2021/01/26 10:33:02;;;;;;;2.00;1.45;;;;;;;;;;12757220;23;20140;-89
2021/01/26 10:38:22;;;;;;;3.38;1.55;;;;;;;;;;12653538;23;20009;-88
2021/01/26 10:43:26;;;;;;;2.00;1.75;;;;;;;;;;12756243;23;20032;-90
2021/01/26 10:48:32;;;;;;;1.65;1.30;;;;;;;;;;12747374;23;20006;-92
2021/01/26 10:53:37;;;;;;;1.48;1.13;;;;;;;;;;12745012;23;20008;-91
2021/01/26 10:58:40;;;;;;;2.58;1.83;;;;;;;;;;12742914;23;20010;-90
2021/01/26 11:03:41;;;;;;;2.67;1.80;;;;;;;;;;12743173;23;20478;-89
2021/01/26 11:08:43;;;;;;;3.83;2.50;;;;;;;;;;12743408;23;20010;-89
2021/01/26 11:13:44;;;;;;;1.58;1.13;;;;;;;;;;12747168;23;20052;-89
2021/01/26 11:18:45;;;;;;;2.75;1.05;;;;;;;;;;12745238;23;20497;-89
2021/01/26 11:23:46;;;;;;;2.20;1.20;;;;;;;;;;12741585;23;20060;-91
2021/01/26 11:28:48;;;;;;;2.55;1.08;;;;;;;;;;12742042;23;20001;-89
2021/01/26 11:33:49;;;;;;;1.67;1.20;;;;;;;;;;12742787;23;20009;-89
2021/01/26 11:38:56;;;;;;;2.30;1.60;;;;;;;;;;12745361;23;20052;-91
2021/01/26 11:44:00;;;;;;;2.17;1.85;;;;;;;;;;12744967;23;20002;-90
2021/01/26 11:49:07;;;;;;;2.40;1.20;;;;;;;;;;12748895;23;20013;-89
2021/01/26 11:54:08;;;;;;;1.75;1.05;;;;;;;;;;12759576;23;20467;-89
2021/01/26 11:59:10;;;;;;;2.13;1.67;;;;;;;;;;12746135;23;20037;-88
2021/01/26 12:04:11;;;;;;;2.53;1.65;;;;;;;;;;12744971;23;20085;-89
2021/01/26 12:09:13;;;;;;;2.15;1.77;;;;;;;;;;12744827;23;20435;-88
2021/01/26 12:14:14;;;;;;;1.92;1.30;;;;;;;;;;12746431;23;20446;-88
2021/01/26 12:19:15;;;;;;;1.67;1.30;;;;;;;;;;12745164;23;20002;-89
2021/01/26 12:24:16;;;;;;;3.65;1.70;;;;;;;;;;12744968;23;20004;-89
2021/01/26 12:29:17;;;;;;;1.95;1.20;;;;;;;;;;12744412;23;20001;-88
2021/01/26 12:34:18;;;;;;;2.35;1.02;;;;;;;;;;12744631;23;20005;-88
2021/01/26 12:39:19;;;;;;;2.70;2.08;;;;;;;;;;12746216;23;20423;-88
2021/01/26 12:44:20;;;;;;;1.90;1.33;;;;;;;;;;12744887;23;20001;-89
2021/01/26 12:49:22;;;;;;;2.40;1.98;;;;;;;;;;12746395;23;20080;-89
2021/01/26 12:54:23;;;;;;;2.15;1.25;;;;;;;;;;12751140;23;20110;-89
2021/01/26 12:59:24;;;;;;;3.47;1.45;;;;;;;;;;12788572;23;20009;-88
2021/01/26 13:04:26;;;;;;;1.75;1.20;;;;;;;;;;12795154;23;19993;-89
2021/01/26 13:09:27;;;;;;;2.65;1.58;;;;;;;;;;12753615;23;20016;-89
2021/01/26 13:14:28;;;;;;;1.60;1.27;;;;;;;;;;12747228;23;20010;-89
2021/01/26 13:19:29;;;;;;;2.13;1.30;;;;;;;;;;12744956;23;20001;-89
2021/01/26 13:24:30;;;;;;;2.10;1.55;;;;;;;;;;12743976;23;20084;-90
2021/01/26 13:29:31;;;;;;;1.40;1.10;;;;;;;;;;12744119;23;20047;-90
2021/01/26 13:34:32;;;;;;;3.45;1.40;;;;;;;;;;12744869;23;20399;-90
2021/01/26 13:39:33;;;;;;;2.45;1.70;;;;;;;;;;12743691;23;20006;-89
2021/01/26 13:44:38;;;;;;;2.30;1.40;;;;;;;;;;12746184;23;20427;-88
2021/01/26 13:49:39;;;;;;;2.38;1.33;;;;;;;;;;12742424;23;20006;-88
2021/01/26 13:54:41;;;;;;;3.53;1.90;;;;;;;;;;12743352;23;20006;-88
2021/01/26 13:59:42;;;;;;;3.22;1.60;;;;;;;;;;12746236;23;19998;-88
2021/01/26 14:04:43;;;;;;;3.05;1.58;;;;;;;;;;12745776;23;20005;-90
2021/01/26 14:09:44;;;;;;;3.97;1.50;;;;;;;;;;12744443;23;20009;-89
2021/01/26 14:14:45;;;;;;;3.92;2.10;;;;;;;;;;12743921;23;20013;-89
2021/01/26 14:48:11;;;;;;;2.35;1.30;;;;;;;;;;12765969;23;20346;-86
2021/01/26 15:11:13;;;;;;;;;;;;;;;;;;;;;
2021/01/26 15:16:39;;;;;;;2.30;1.00;;;;;;;;;;12765056;23;20057;-85
2021/01/26 15:33:48;;;;;;;3.20;1.60;;;;;;;;;;12457783;23;20007;-84
2021/01/26 18:55:31;;;;;;;4.20;3.20;;;;;;;;;;12779126;23;20043;-86
2021/01/26 19:00:32;;;;;;;4.80;3.20;;;;;;;;;;12719997;23;20065;-85
2021/01/26 19:05:37;;;;;;;3.65;3.25;;;;;;;;;;12719096;23;20057;-88
2021/01/26 19:10:52;;;;;;;5.28;3.60;;;;;;;;;;12720240;23;20002;-88
2021/01/26 19:16:06;;;;;;;6.03;3.75;;;;;;;;;;12718952;23;20377;-87
2021/01/26 19:21:28;;;;;;;4.47;3.40;;;;;;;;;;12719734;23;20076;-87
2021/01/26 19:26:57;;;;;;;4.28;3.60;;;;;;;;;;12720408;23;20038;-87
2021/01/26 19:31:59;;;;;;;4.93;3.15;;;;;;;;;;12718178;23;20017;-87
2021/01/26 19:37:08;;;;;;;3.90;3.20;;;;;;;;;;12718254;23;20017;-88
2021/01/26 19:42:17;;;;;;;5.75;4.85;;;;;;;;;;12720810;23;20442;-87
2021/01/26 19:47:18;;;;;;;6.43;4.07;;;;;;;;;;12746217;23;20061;-87
2021/01/26 19:52:21;;;;;;;3.58;2.90;;;;;;;;;;12725807;23;20009;-86
2021/01/26 19:57:25;;;;;;;5.38;4.03;;;;;;;;;;12723669;23;20417;-86
2021/01/26 20:02:45;;;;;;;4.88;3.67;;;;;;;;;;12723734;23;20013;-86
2021/01/26 20:07:49;;;;;;;3.97;2.70;;;;;;;;;;12727568;23;20110;-85
2021/01/26 20:13:03;;;;;;;4.60;3.35;;;;;;;;;;12727489;23;20389;-85
2021/01/26 20:18:43;;;;;;;5.15;4.30;;;;;;;;;;12728553;23;20009;-86
2021/01/26 20:23:56;;;;;;;4.30;3.35;;;;;;;;;;12700912;23;20010;-86
2021/01/26 20:28:57;;;;;;;6.05;4.22;;;;;;;;;;12730341;23;20010;-85
2021/01/26 20:34:13;;;;;;;5.57;4.63;;;;;;;;;;12728210;23;20032;-85
2021/01/26 20:39:14;;;;;;;6.15;4.43;;;;;;;;;;12727186;23;20002;-86
2021/01/26 20:44:29;;;;;;;4.97;3.93;;;;;;;;;;12753672;23;20025;-86
2021/01/26 20:49:34;;;;;;;6.00;4.55;;;;;;;;;;12731434;23;20006;-86
2021/01/26 20:54:36;;;;;;;7.40;5.18;;;;;;;;;;12727085;23;20381;-86
2021/01/26 21:00:04;;;;;;;4.22;3.83;;;;;;;;;;12727535;23;20089;-87
2021/01/26 21:05:30;;;;;;;6.20;5.60;;;;;;;;;;12683302;23;20381;-86
2021/01/26 21:11:01;;;;;;;5.15;4.25;;;;;;;;;;12688968;23;20394;-88
2021/01/26 21:16:21;;;;;;;7.50;5.20;;;;;;;;;;12716227;23;20031;-88
2021/01/26 21:21:45;;;;;;;5.72;5.18;;;;;;;;;;12752426;23;20053;-87
